Time;durP1;ratioP1;P1;durP2;ratioP2;P2;SDS_P1;SDS_P2;PMS_P1;PMS_P2;Temp;Humidity;BMP_temperature;BMP_pressure;BME280_temperature;BME280_humidity;BME280_pressure;Samples;Min_cycle;Max_cycle;Signal;HPM_P1;HPM_P2
2022/04/18 00:01:34;;;;;;;4.07;2.30;;;4.10;99.90;;;;;;4916314;29;20200;-70
2022/04/18 00:04:00;;;;;;;2.20;2.07;;;4.20;99.90;;;;;;4917031;29;20424;-70
2022/04/18 00:06:26;;;;;;;5.43;2.27;;;4.10;99.90;;;;;;4916540;29;20425;-70
2022/04/18 00:08:51;;;;;;;2.97;1.70;;;4.10;99.90;;;;;;4917075;29;20181;-70
2022/04/18 00:11:17;;;;;;;2.40;2.20;;;4.00;99.90;;;;;;4916100;29;20218;-70
2022/04/18 00:13:42;;;;;;;2.27;2.07;;;4.00;99.90;;;;;;4916916;29;20269;-70
2022/04/18 00:16:08;;;;;;;4.50;2.40;;;4.00;99.90;;;;;;4917320;29;20554;-70
2022/04/18 00:18:33;;;;;;;2.60;2.40;;;4.00;99.90;;;;;;4918434;29;20177;-71
2022/04/18 00:20:59;;;;;;;4.23;2.40;;;3.90;99.90;;;;;;4916291;29;20193;-71
2022/04/18 00:23:24;;;;;;;4.93;2.57;;;3.90;99.90;;;;;;4916419;29;20181;-71
2022/04/18 00:25:50;;;;;;;2.60;2.40;;;3.90;99.90;;;;;;4916795;29;20190;-71
2022/04/18 00:28:15;;;;;;;2.13;1.90;;;3.80;99.90;;;;;;4916401;29;20268;-70
2022/04/18 00:30:41;;;;;;;4.90;2.60;;;3.90;99.90;;;;;;4915974;29;20760;-67
2022/04/18 00:33:09;;;;;;;2.90;2.20;;;3.90;99.90;;;;;;4916388;29;20187;-70
2022/04/18 00:35:35;;;;;;;2.40;1.97;;;3.80;99.90;;;;;;4916068;29;20990;-71
2022/04/18 00:38:00;;;;;;;2.80;2.30;;;3.70;99.90;;;;;;4916186;29;20509;-71
2022/04/18 00:40:26;;;;;;;4.77;2.03;;;3.70;99.90;;;;;;4915861;29;20673;-69
2022/04/18 00:42:51;;;;;;;2.37;2.17;;;3.60;99.90;;;;;;4916128;29;20202;-71
2022/04/18 00:45:17;;;;;;;2.10;2.00;;;3.60;99.90;;;;;;4915778;29;20182;-70
2022/04/18 00:47:42;;;;;;;2.43;2.00;;;3.50;99.90;;;;;;4916217;29;20242;-71
2022/04/18 00:50:09;;;;;;;2.70;2.20;;;3.50;99.90;;;;;;4915758;29;20266;-71
2022/04/18 00:52:37;;;;;;;3.40;2.00;;;3.40;99.90;;;;;;4915602;29;20207;-70
2022/04/18 00:55:03;;;;;;;2.70;2.50;;;3.40;99.90;;;;;;4916039;29;20493;-70
2022/04/18 00:57:29;;;;;;;2.77;2.57;;;3.40;99.90;;;;;;4915823;29;20416;-70
2022/04/18 00:59:55;;;;;;;2.50;2.30;;;3.40;99.90;;;;;;4915338;29;20191;-70
2022/04/18 02:32:59;;;;;;;3.77;3.47;;;2.30;99.90;;;;;;5035772;23;20511;-71
2022/04/18 02:35:26;;;;;;;6.73;2.57;;;2.20;99.90;;;;;;4993906;28;20756;-72
2022/04/18 02:37:53;;;;;;;10.90;3.30;;;2.30;99.90;;;;;;4995346;28;20415;-71
2022/04/18 02:40:19;;;;;;;3.73;2.50;;;2.20;99.90;;;;;;4995199;28;20415;-69
2022/04/18 02:42:45;;;;;;;3.70;3.23;;;2.20;99.90;;;;;;4977301;28;20433;-72
2022/04/18 02:45:14;;;;;;;3.40;3.03;;;2.20;99.90;;;;;;4975615;28;20416;-71
2022/04/18 02:47:39;;;;;;;5.70;3.00;;;2.20;99.90;;;;;;4975818;28;20246;-71
2022/04/18 02:50:06;;;;;;;3.77;3.40;;;2.20;99.90;;;;;;4975459;28;20806;-71
2022/04/18 02:52:32;;;;;;;5.93;2.90;;;2.20;99.90;;;;;;4975297;28;20442;-71
2022/04/18 02:54:58;;;;;;;5.40;2.90;;;2.20;99.90;;;;;;4975469;28;20454;-72
2022/04/18 02:57:23;;;;;;;4.30;3.27;;;2.20;99.90;;;;;;4975177;28;20448;-71
2022/04/18 02:59:49;;;;;;;5.17;3.20;;;2.10;99.90;;;;;;4975407;28;20286;-72
2022/04/18 03:02:14;;;;;;;16.13;3.30;;;2.10;99.90;;;;;;4974939;28;20198;-71
2022/04/18 03:04:40;;;;;;;3.10;2.90;;;2.10;99.90;;;;;;4975402;28;20636;-71
2022/04/18 03:07:06;;;;;;;4.37;3.00;;;2.10;99.90;;;;;;4975168;28;20182;-71
2022/04/18 03:09:31;;;;;;;4.53;3.53;;;2.10;99.90;;;;;;4975535;28;20637;-71
2022/04/18 03:11:57;;;;;;;3.90;3.60;;;2.00;99.90;;;;;;4974874;28;20200;-72
2022/04/18 03:14:23;;;;;;;3.20;2.90;;;2.00;99.90;;;;;;4975335;28;20255;-72
2022/04/18 03:16:49;;;;;;;3.30;2.83;;;1.90;99.90;;;;;;4975123;28;20677;-72
2022/04/18 03:19:14;;;;;;;3.20;2.90;;;1.90;99.90;;;;;;4974898;28;20447;-72
2022/04/18 03:21:40;;;;;;;4.33;2.97;;;1.90;99.90;;;;;;4974856;28;20204;-72
2022/04/18 03:24:06;;;;;;;5.80;3.03;;;1.80;99.90;;;;;;4974321;28;20720;-72
2022/04/18 03:26:32;;;;;;;5.73;3.40;;;1.80;99.90;;;;;;4975070;28;20505;-72
2022/04/18 03:28:57;;;;;;;4.50;2.87;;;1.80;99.90;;;;;;4974916;28;20184;-72
2022/04/18 03:31:23;;;;;;;6.57;2.73;;;1.80;99.90;;;;;;4974268;28;20223;-73
2022/04/18 03:33:48;;;;;;;4.63;3.37;;;1.80;99.90;;;;;;4975105;28;20172;-71
2022/04/18 03:41:42;;;;;;;4.50;3.03;;;1.70;99.90;;;;;;4974620;28;20439;-72
2022/04/18 03:44:09;;;;;;;4.93;3.20;;;1.70;99.90;;;;;;4974548;28;20502;-71
2022/04/18 03:46:34;;;;;;;3.73;3.40;;;1.70;99.90;;;;;;4974697;28;20542;-71
2022/04/18 03:49:00;;;;;;;3.17;2.97;;;1.70;99.90;;;;;;4974471;28;20434;-72
2022/04/18 03:51:26;;;;;;;4.23;3.60;;;1.70;99.90;;;;;;4974069;28;20301;-70
2022/04/18 03:53:51;;;;;;;4.53;3.20;;;1.60;99.90;;;;;;4974480;28;20176;-71
2022/04/18 03:56:17;;;;;;;3.67;3.37;;;1.60;99.90;;;;;;4974361;28;20179;-71
2022/04/18 03:58:42;;;;;;;4.27;2.80;;;1.60;99.90;;;;;;4974363;28;20215;-71
2022/04/18 04:01:08;;;;;;;5.13;3.10;;;1.60;99.90;;;;;;4973834;28;20246;-71
2022/04/18 04:03:33;;;;;;;4.17;3.10;;;1.60;99.90;;;;;;4974162;28;20246;-71
2022/04/18 04:05:59;;;;;;;3.03;2.83;;;1.60;99.90;;;;;;4974237;28;20180;-71
2022/04/18 04:08:24;;;;;;;6.83;3.17;;;1.50;99.90;;;;;;4974126;28;20193;-71
2022/04/18 04:10:50;;;;;;;3.93;2.83;;;1.50;99.90;;;;;;4973682;28;20215;-72
2022/04/18 04:13:16;;;;;;;3.20;2.90;;;1.40;99.90;;;;;;4974082;28;20233;-73
2022/04/18 04:15:42;;;;;;;3.93;3.60;;;1.40;99.90;;;;;;4974268;28;20180;-73
2022/04/18 04:18:07;;;;;;;6.20;3.10;;;1.40;99.90;;;;;;4973866;28;20417;-71
2022/04/18 04:20:33;;;;;;;4.00;3.20;;;1.50;99.90;;;;;;4973801;28;20227;-71
2022/04/18 04:22:58;;;;;;;4.17;3.60;;;1.50;99.90;;;;;;4973941;28;20208;-72
2022/04/18 04:25:24;;;;;;;3.30;2.90;;;1.50;99.90;;;;;;4973764;28;20176;-71
2022/04/18 04:27:49;;;;;;;10.63;3.00;;;1.50;99.90;;;;;;4973807;28;20193;-71
2022/04/18 04:30:15;;;;;;;3.17;2.83;;;1.50;99.90;;;;;;4973744;28;20615;-71
2022/04/18 04:32:41;;;;;;;4.00;3.20;;;1.50;99.90;;;;;;4973318;28;20211;-71
2022/04/18 04:35:06;;;;;;;3.93;3.50;;;1.50;99.90;;;;;;4972609;28;20187;-70
2022/04/18 04:37:32;;;;;;;3.47;2.97;;;1.40;99.90;;;;;;4973755;28;20181;-71
2022/04/18 04:39:57;;;;;;;5.40;3.60;;;1.50;99.90;;;;;;4973624;28;20206;-71
2022/04/18 04:42:23;;;;;;;7.97;4.13;;;1.50;99.90;;;;;;4973194;28;20198;-70
2022/04/18 04:44:49;;;;;;;4.13;3.67;;;1.50;99.90;;;;;;4972424;28;20293;-71
2022/04/18 04:47:14;;;;;;;4.60;2.90;;;1.60;99.90;;;;;;4973437;28;20548;-71
2022/04/18 04:49:40;;;;;;;4.07;3.23;;;1.60;99.90;;;;;;4973380;28;20179;-71
2022/04/18 04:52:06;;;;;;;3.47;3.17;;;1.60;99.90;;;;;;4972869;28;20207;-71
2022/04/18 04:54:35;;;;;;;5.00;3.90;;;1.60;99.90;;;;;;4973278;28;20182;-71
2022/04/18 04:57:00;;;;;;;3.40;2.83;;;1.60;99.90;;;;;;4973161;28;20413;-70
2022/04/18 04:59:26;;;;;;;4.13;3.73;;;1.60;99.90;;;;;;4973072;28;20420;-71
2022/04/18 05:01:51;;;;;;;7.70;3.70;;;1.60;99.90;;;;;;4972849;28;20201;-72
2022/04/18 05:04:17;;;;;;;3.40;3.10;;;1.70;99.90;;;;;;4972895;28;20193;-73
2022/04/18 05:06:43;;;;;;;4.60;3.40;;;1.70;99.90;;;;;;4973190;28;20184;-72
2022/04/18 05:09:08;;;;;;;3.47;3.17;;;1.80;99.90;;;;;;4972786;28;20219;-72
2022/04/18 05:11:34;;;;;;;6.63;3.70;;;1.90;99.90;;;;;;4972740;28;20219;-72
2022/04/18 05:13:59;;;;;;;5.50;3.13;;;2.00;99.90;;;;;;4972911;28;20194;-72
2022/04/18 05:16:25;;;;;;;3.63;3.33;;;2.10;99.90;;;;;;4972984;28;20191;-72
2022/04/18 05:18:51;;;;;;;4.03;3.10;;;2.70;99.90;;;;;;4972960;28;20173;-72
2022/04/18 05:21:16;;;;;;;4.20;3.33;;;4.60;99.90;;;;;;4972416;28;20216;-73
2022/04/18 05:23:42;;;;;;;3.87;3.63;;;6.60;99.90;;;;;;4972864;28;20185;-73
2022/04/18 05:26:08;;;;;;;5.50;3.70;;;8.40;99.90;;;;;;4972869;28;20198;-71
2022/04/18 05:28:33;;;;;;;7.70;4.40;;;10.40;99.90;;;;;;4972847;28;20176;-72
2022/04/18 05:30:59;;;;;;;3.57;3.10;;;11.40;99.90;;;;;;4972071;28;20228;-72
2022/04/18 05:33:25;;;;;;;3.80;3.37;;;12.40;99.90;;;;;;4972658;28;20186;-72
2022/04/18 05:35:50;;;;;;;3.53;3.23;;;12.80;99.90;;;;;;4972676;28;20187;-72
2022/04/18 05:38:17;;;;;;;5.97;4.07;;;13.70;99.90;;;;;;4972525;28;20502;-72
2022/04/18 05:40:43;;;;;;;3.60;3.30;;;14.10;99.90;;;;;;4972329;28;20191;-72
2022/04/18 05:43:09;;;;;;;4.03;3.73;;;15.30;99.90;;;;;;4972452;28;20821;-73
2022/04/18 05:45:36;;;;;;;4.00;3.60;;;15.30;99.90;;;;;;4972727;28;20183;-72
2022/04/18 05:48:02;;;;;;;3.73;3.27;;;15.90;99.90;;;;;;4976264;28;20203;-73
2022/04/18 05:50:27;;;;;;;4.50;3.20;;;15.90;99.90;;;;;;4976573;28;20466;-72
2022/04/18 05:52:54;;;;;;;5.20;3.43;;;16.40;99.90;;;;;;4976514;28;20192;-73
2022/04/18 05:55:20;;;;;;;4.73;4.13;;;17.30;99.90;;;;;;4976456;28;20656;-73
2022/04/18 05:57:45;;;;;;;3.70;3.40;;;17.70;99.70;;;;;;4976602;28;20438;-73
2022/04/18 06:00:11;;;;;;;4.90;3.87;;;18.10;98.00;;;;;;4976403;28;20920;-72
2022/04/18 06:02:37;;;;;;;6.70;3.30;;;18.20;96.20;;;;;;4976286;28;20243;-72
2022/04/18 06:05:03;;;;;;;3.80;2.90;;;18.30;96.20;;;;;;4976402;28;20418;-72
2022/04/18 06:07:28;;;;;;;5.50;3.80;;;18.40;94.50;;;;;;4976317;28;20180;-73
2022/04/18 06:09:54;;;;;;;4.60;4.03;;;18.40;95.20;;;;;;4976192;28;20204;-72
2022/04/18 06:12:20;;;;;;;4.63;3.80;;;18.20;95.10;;;;;;4975707;28;20612;-71
2022/04/18 06:14:46;;;;;;;3.90;3.60;;;18.30;94.90;;;;;;4976328;28;20505;-72
2022/04/18 06:17:12;;;;;;;4.10;3.57;;;18.50;94.30;;;;;;4975981;28;20506;-72
2022/04/18 06:19:37;;;;;;;4.00;3.70;;;19.10;93.50;;;;;;4976135;28;20198;-72
2022/04/18 06:22:03;;;;;;;5.90;3.60;;;19.50;93.60;;;;;;4975688;28;20223;-72
2022/04/18 06:24:29;;;;;;;4.90;3.37;;;19.50;92.40;;;;;;4975930;28;20176;-72
2022/04/18 06:26:54;;;;;;;4.27;3.97;;;19.40;91.10;;;;;;4975980;28;20967;-72
2022/04/18 06:29:20;;;;;;;5.23;4.30;;;19.00;91.30;;;;;;4975821;28;20187;-72
2022/04/18 06:31:46;;;;;;;5.10;3.80;;;18.20;92.10;;;;;;4975337;28;20215;-72
2022/04/18 06:34:12;;;;;;;5.43;4.33;;;18.30;93.30;;;;;;4975696;28;20171;-72
2022/04/18 06:36:38;;;;;;;6.53;4.23;;;18.00;92.80;;;;;;4976001;28;20176;-72
2022/04/18 06:39:04;;;;;;;4.87;4.47;;;17.40;92.10;;;;;;4975593;28;20426;-72
2022/04/18 06:41:29;;;;;;;5.17;4.53;;;16.20;92.10;;;;;;4975391;28;20199;-73
2022/04/18 06:43:55;;;;;;;4.43;4.03;;;16.00;92.80;;;;;;4975763;28;20180;-72
2022/04/18 06:46:20;;;;;;;5.57;3.63;;;16.00;95.90;;;;;;4975260;28;20239;-72
2022/04/18 06:48:46;;;;;;;4.23;3.83;;;15.50;94.40;;;;;;4975991;28;20180;-72
2022/04/18 06:51:11;;;;;;;10.20;4.30;;;15.30;93.50;;;;;;4974896;28;20208;-72
2022/04/18 06:53:37;;;;;;;6.17;4.47;;;15.30;93.50;;;;;;4975647;28;20214;-70
2022/04/18 06:58:47;;;;;;;3.93;3.53;;;15.30;93.90;;;;;;4974495;28;20207;-72
2022/04/18 07:01:12;;;;;;;4.67;3.83;;;16.00;95.20;;;;;;4974756;28;20439;-72
2022/04/18 07:03:38;;;;;;;7.80;3.70;;;16.10;93.50;;;;;;4975402;28;20696;-72
2022/04/18 07:06:03;;;;;;;5.43;4.10;;;16.00;93.10;;;;;;4975385;28;20263;-72
2022/04/18 07:08:29;;;;;;;3.90;3.27;;;16.10;93.90;;;;;;4975355;28;20183;-72
2022/04/18 07:10:54;;;;;;;5.53;4.47;;;16.20;92.90;;;;;;4974897;28;20211;-72
2022/04/18 07:13:20;;;;;;;7.03;3.57;;;16.20;93.30;;;;;;4975225;28;20184;-72
2022/04/18 07:15:45;;;;;;;5.00;3.77;;;16.10;93.10;;;;;;4975153;28;20176;-72
2022/04/18 07:18:11;;;;;;;4.40;4.10;;;16.10;93.00;;;;;;4974842;28;20180;-71
2022/04/18 07:20:37;;;;;;;5.97;4.70;;;15.90;93.00;;;;;;4974819;28;20188;-71
2022/04/18 07:23:03;;;;;;;4.50;4.13;;;15.70;91.40;;;;;;4974803;28;20656;-72
2022/04/18 07:25:29;;;;;;;7.30;4.60;;;15.80;92.60;;;;;;4974971;28;20510;-71
2022/04/18 07:27:54;;;;;;;8.57;4.10;;;16.00;91.80;;;;;;4974718;28;20239;-72
2022/04/18 07:30:20;;;;;;;4.60;4.17;;;15.80;92.60;;;;;;4974804;28;20603;-71
2022/04/18 07:32:46;;;;;;;6.17;4.90;;;16.20;93.10;;;;;;4974652;28;20211;-72
2022/04/18 07:35:12;;;;;;;6.00;3.80;;;16.40;93.20;;;;;;4975042;28;20408;-71
2022/04/18 07:38:48;;;;;;;5.03;4.17;;;16.70;91.90;;;;;;4974769;28;20538;-73
2022/04/18 07:40:24;;;;;;;5.10;3.93;;;16.20;90.60;;;;;;4974313;28;20221;-72
2022/04/18 07:42:49;;;;;;;4.07;3.67;;;16.40;91.80;;;;;;4973201;28;20865;-72
2022/04/18 07:45:15;;;;;;;5.40;4.40;;;16.30;92.10;;;;;;4974447;28;20716;-72
2022/04/18 07:47:40;;;;;;;6.13;4.37;;;16.30;92.30;;;;;;4974495;28;20183;-71
2022/04/18 07:50:06;;;;;;;4.30;4.00;;;16.80;92.50;;;;;;4974415;28;20231;-72
2022/04/18 07:52:31;;;;;;;5.93;4.17;;;17.10;91.90;;;;;;4974041;28;20268;-72
2022/04/18 07:54:57;;;;;;;3.47;3.27;;;17.20;90.80;;;;;;4974438;28;20498;-72
2022/04/18 07:57:22;;;;;;;4.27;3.80;;;17.30;91.30;;;;;;4974356;28;20180;-72
2022/04/18 07:59:48;;;;;;;4.50;4.07;;;17.50;90.40;;;;;;4974323;28;20624;-72
2022/04/18 08:02:13;;;;;;;5.00;4.07;;;17.10;90.10;;;;;;4973901;28;20204;-72
2022/04/18 08:04:39;;;;;;;4.10;3.70;;;17.20;90.00;;;;;;4974222;28;20564;-72
2022/04/18 08:07:06;;;;;;;4.53;3.87;;;17.50;89.60;;;;;;4974056;28;20175;-72
2022/04/18 08:09:31;;;;;;;4.17;3.63;;;17.60;91.20;;;;;;4974047;28;20172;-72
2022/04/18 08:11:57;;;;;;;4.60;4.20;;;17.60;90.40;;;;;;4973725;28;20454;-72
2022/04/18 08:14:22;;;;;;;4.57;4.17;;;18.00;90.40;;;;;;4974020;28;20180;-72
2022/04/18 08:16:48;;;;;;;6.33;3.77;;;18.20;90.00;;;;;;4974073;28;20187;-73
2022/04/18 08:19:14;;;;;;;3.83;3.53;;;18.10;86.70;;;;;;4973865;28;20617;-72
2022/04/18 08:21:39;;;;;;;4.83;3.87;;;17.80;87.10;;;;;;4973864;28;20271;-72
2022/04/18 08:24:05;;;;;;;4.00;3.60;;;17.70;89.60;;;;;;4973846;28;20649;-72
2022/04/18 08:26:30;;;;;;;3.93;3.47;;;17.80;87.10;;;;;;4974129;28;20200;-72
2022/04/18 08:28:56;;;;;;;6.40;4.20;;;18.00;89.50;;;;;;4973870;28;20168;-72
2022/04/18 08:31:22;;;;;;;4.00;3.70;;;18.00;87.40;;;;;;4973337;28;20640;-72
2022/04/18 08:33:48;;;;;;;4.37;3.90;;;17.90;85.20;;;;;;4973797;28;20176;-72
2022/04/18 08:36:13;;;;;;;4.30;3.90;;;18.00;87.00;;;;;;4973521;28;20431;-72
2022/04/18 08:38:39;;;;;;;4.63;3.90;;;18.40;89.10;;;;;;4973635;28;20552;-72
2022/04/18 08:41:05;;;;;;;4.87;4.17;;;18.80;89.50;;;;;;4973236;28;20203;-72
2022/04/18 08:43:31;;;;;;;5.50;4.07;;;19.20;90.50;;;;;;4973502;28;20231;-72
2022/04/18 08:45:56;;;;;;;4.60;3.57;;;19.30;85.20;;;;;;4973523;28;20916;-72
2022/04/18 08:53:58;;;;;;;4.77;3.90;;;18.40;83.10;;;;;;4973349;28;20503;-73
2022/04/18 08:56:24;;;;;;;5.57;3.80;;;18.50;85.00;;;;;;4973275;28;20415;-72
2022/04/18 08:58:50;;;;;;;4.77;3.77;;;19.00;87.80;;;;;;4973237;28;20498;-72
2022/04/18 09:01:16;;;;;;;4.33;3.93;;;19.50;86.50;;;;;;4972802;28;20522;-72
2022/04/18 09:03:41;;;;;;;5.60;3.30;;;19.80;82.40;;;;;;4973197;28;20543;-72
2022/04/18 09:06:12;;;;;;;5.80;3.73;;;20.50;85.40;;;;;;4973090;28;20498;-73
2022/04/18 09:08:46;;;;;;;4.23;3.70;;;20.50;80.20;;;;;;4972020;28;20188;-72
2022/04/18 09:11:24;;;;;;;4.90;4.27;;;20.60;77.90;;;;;;4972921;28;20885;-73
2022/04/18 09:13:50;;;;;;;5.93;4.13;;;20.20;81.00;;;;;;4973157;28;20772;-72
2022/04/18 09:16:18;;;;;;;5.87;4.80;;;19.90;77.80;;;;;;4972712;28;20511;-72
2022/04/18 09:18:44;;;;;;;4.33;3.77;;;18.50;79.00;;;;;;4972976;28;20199;-73
2022/04/18 09:21:09;;;;;;;5.93;4.27;;;18.70;80.90;;;;;;4971836;28;20439;-73
2022/04/18 09:23:35;;;;;;;3.87;3.50;;;19.50;83.60;;;;;;4972996;28;20254;-72
2022/04/18 09:26:03;;;;;;;4.37;3.37;;;20.00;82.80;;;;;;4972779;28;20179;-72
2022/04/18 09:28:34;;;;;;;6.17;2.33;;;20.80;76.50;;;;;;4972727;28;20176;-73
2022/04/18 09:31:05;;;;;;;3.30;3.03;;;20.40;74.40;;;;;;4972455;28;20474;-72
2022/04/18 09:33:41;;;;;;;3.20;2.87;;;20.50;72.40;;;;;;4972807;28;20431;-74
2022/04/18 09:36:06;;;;;;;3.60;3.30;;;19.90;72.10;;;;;;4972632;28;20418;-72
2022/04/18 09:38:36;;;;;;;3.13;2.80;;;19.90;69.40;;;;;;4972957;28;20880;-72
2022/04/18 09:41:01;;;;;;;6.00;3.60;;;19.80;69.60;;;;;;4972417;28;20196;-72
2022/04/18 09:43:37;;;;;;;3.33;3.03;;;20.10;68.30;;;;;;4973620;28;20942;-73
2022/04/18 09:46:02;;;;;;;3.17;2.97;;;20.00;67.20;;;;;;4977393;28;20171;-73
2022/04/18 09:48:33;;;;;;;7.20;3.33;;;19.70;67.80;;;;;;4974768;28;20442;-73
2022/04/18 09:50:59;;;;;;;3.60;3.07;;;19.30;69.80;;;;;;4972431;28;20246;-72
2022/04/18 09:53:26;;;;;;;3.67;3.37;;;19.60;74.30;;;;;;4972410;28;20925;-73
2022/04/18 09:55:54;;;;;;;3.97;2.97;;;20.10;71.70;;;;;;4972675;28;20172;-72
2022/04/18 09:58:21;;;;;;;7.77;3.00;;;20.60;71.60;;;;;;4972292;28;20416;-72
2022/04/18 10:00:50;;;;;;;3.27;2.80;;;20.60;68.20;;;;;;4972348;28;20434;-74
2022/04/18 10:03:17;;;;;;;2.83;2.63;;;20.90;69.30;;;;;;4972238;28;20946;-72
2022/04/18 10:05:42;;;;;;;4.70;3.83;;;20.70;69.00;;;;;;4972583;28;20416;-72
2022/04/18 10:08:08;;;;;;;4.57;3.30;;;20.30;71.60;;;;;;4972470;28;20450;-72
2022/04/18 10:10:36;;;;;;;5.47;3.57;;;20.80;71.20;;;;;;4972328;28;20262;-72
2022/04/18 10:13:06;;;;;;;7.33;3.50;;;20.90;71.10;;;;;;4972330;28;20411;-72
2022/04/18 10:15:33;;;;;;;5.13;3.10;;;20.60;70.70;;;;;;4972372;28;20419;-72
2022/04/18 10:18:02;;;;;;;6.27;3.70;;;21.00;72.00;;;;;;4972381;28;20855;-73
2022/04/18 10:20:58;;;;;;;4.37;3.40;;;21.40;69.00;;;;;;4972161;28;20427;-75
2022/04/18 10:23:58;;;;;;;2.97;2.77;;;22.20;71.10;;;;;;4972186;28;20852;-72
2022/04/18 10:26:48;;;;;;;3.93;3.40;;;22.10;71.20;;;;;;4972310;28;20416;-72
2022/04/18 10:29:24;;;;;;;4.03;2.87;;;21.60;68.70;;;;;;4972135;28;20775;-72
2022/04/18 10:31:52;;;;;;;3.60;3.37;;;21.70;69.10;;;;;;4972837;28;20478;-72
2022/04/18 10:34:26;;;;;;;4.40;3.50;;;21.20;67.30;;;;;;4976185;28;20422;-72
2022/04/18 10:36:53;;;;;;;4.20;3.80;;;20.60;67.50;;;;;;4975883;28;20494;-72
2022/04/18 10:39:20;;;;;;;4.13;3.07;;;20.60;67.30;;;;;;4975690;28;20420;-72
2022/04/18 10:41:47;;;;;;;3.20;2.87;;;21.20;71.80;;;;;;4975391;28;20435;-73
2022/04/18 10:44:17;;;;;;;4.00;2.93;;;21.80;67.30;;;;;;4975840;28;20414;-73
2022/04/18 10:47:01;;;;;;;3.93;3.43;;;21.90;68.10;;;;;;4976703;28;20562;-73
2022/04/18 10:49:33;;;;;;;3.40;3.10;;;21.80;66.80;;;;;;4976681;28;20443;-73
2022/04/18 10:52:09;;;;;;;3.20;2.90;;;21.70;67.80;;;;;;4975441;28;20463;-73
2022/04/18 10:54:35;;;;;;;3.00;2.73;;;22.00;66.90;;;;;;4974911;28;20903;-73
2022/04/18 10:57:08;;;;;;;3.03;2.73;;;22.30;69.00;;;;;;4976496;28;20434;-73
2022/04/18 10:59:38;;;;;;;2.77;2.57;;;22.70;67.70;;;;;;4976252;28;20506;-73
2022/04/18 11:02:05;;;;;;;3.57;3.27;;;23.00;68.90;;;;;;4975161;28;20442;-73
2022/04/18 11:04:40;;;;;;;2.90;2.60;;;23.10;66.40;;;;;;4975561;28;20433;-73
2022/04/18 11:07:10;;;;;;;5.00;3.00;;;22.50;64.10;;;;;;4975194;28;20478;-72
2022/04/18 11:09:42;;;;;;;4.30;2.70;;;21.50;64.40;;;;;;4975256;28;20435;-73
2022/04/18 11:12:12;;;;;;;2.83;2.63;;;20.60;64.70;;;;;;4974726;28;20439;-72
2022/04/18 11:14:37;;;;;;;2.80;2.60;;;20.60;65.70;;;;;;4975308;28;20411;-72
2022/04/18 11:17:05;;;;;;;4.20;3.03;;;19.30;68.10;;;;;;4975033;28;20905;-73
2022/04/18 11:19:41;;;;;;;3.30;3.10;;;19.30;67.50;;;;;;4975280;28;20203;-73
2022/04/18 11:22:07;;;;;;;3.10;2.40;;;19.30;67.90;;;;;;4973480;28;20438;-73
2022/04/18 11:24:46;;;;;;;3.27;2.97;;;19.60;70.50;;;;;;4975014;28;20414;-73
2022/04/18 11:27:13;;;;;;;5.80;3.07;;;19.50;67.60;;;;;;4973614;28;20419;-72
2022/04/18 11:29:41;;;;;;;2.60;2.40;;;20.20;72.10;;;;;;4974811;28;20435;-73
2022/04/18 11:32:08;;;;;;;4.10;3.07;;;20.60;69.70;;;;;;4974192;28;20466;-73
2022/04/18 11:34:35;;;;;;;4.43;2.80;;;20.10;68.00;;;;;;4974825;28;20419;-73
2022/04/18 11:37:04;;;;;;;3.80;3.50;;;20.30;68.90;;;;;;4974687;28;20415;-73
2022/04/18 11:39:47;;;;;;;2.40;2.20;;;20.20;67.80;;;;;;4974614;28;20419;-73
2022/04/18 11:42:21;;;;;;;3.20;2.63;;;20.30;68.50;;;;;;4974272;28;20442;-73
2022/04/18 11:44:49;;;;;;;6.57;3.73;;;20.20;66.90;;;;;;4974118;28;20463;-73
2022/04/18 11:47:20;;;;;;;2.77;2.57;;;20.00;67.00;;;;;;4974566;28;20419;-72
2022/04/18 11:49:46;;;;;;;3.20;2.83;;;19.50;68.70;;;;;;4974490;28;20419;-72
2022/04/18 11:52:20;;;;;;;9.70;3.30;;;19.90;71.80;;;;;;4976683;28;20455;-74
2022/04/18 11:54:57;;;;;;;6.67;3.40;;;20.10;70.80;;;;;;4978124;28;20199;-73
2022/04/18 11:57:23;;;;;;;5.70;3.27;;;20.40;75.80;;;;;;4974240;28;20411;-72
2022/04/18 11:59:49;;;;;;;3.50;2.83;;;20.00;66.70;;;;;;4974405;28;20428;-72
2022/04/18 12:07:43;;;;;;;6.60;2.90;;;18.90;69.20;;;;;;4974585;28;20810;-73
2022/04/18 12:10:24;;;;;;;4.00;2.97;;;18.70;67.90;;;;;;4973961;28;20459;-73
2022/04/18 12:12:50;;;;;;;3.93;2.50;;;18.70;70.20;;;;;;4973908;28;20439;-74
2022/04/18 12:15:16;;;;;;;3.40;3.10;;;18.80;70.80;;;;;;4973985;28;20416;-72
2022/04/18 12:17:42;;;;;;;3.97;3.47;;;19.10;70.80;;;;;;4973893;28;20426;-72
2022/04/18 12:20:30;;;;;;;2.77;2.47;;;19.10;71.10;;;;;;4973862;28;20168;-72
2022/04/18 12:23:01;;;;;;;5.43;2.37;;;19.20;70.80;;;;;;4973698;28;20948;-72
2022/04/18 12:25:30;;;;;;;3.30;3.00;;;19.30;69.20;;;;;;4973869;28;20418;-72
2022/04/18 12:27:57;;;;;;;4.03;2.57;;;19.10;68.40;;;;;;4973820;28;20513;-72
2022/04/18 12:30:23;;;;;;;3.33;3.03;;;19.00;70.20;;;;;;4973388;28;20517;-70
2022/04/18 12:32:49;;;;;;;4.13;3.37;;;18.60;68.50;;;;;;4973316;28;20455;-73
2022/04/18 12:35:30;;;;;;;4.20;3.20;;;18.70;70.00;;;;;;4973620;28;20168;-72
2022/04/18 12:38:04;;;;;;;3.27;2.47;;;18.40;68.90;;;;;;4973841;28;20176;-72
2022/04/18 12:40:41;;;;;;;2.87;2.67;;;17.80;70.10;;;;;;4973573;28;20411;-72
2022/04/18 12:43:15;;;;;;;7.30;2.70;;;17.60;70.50;;;;;;4973904;28;20958;-72
2022/04/18 12:45:51;;;;;;;3.33;3.10;;;17.30;70.20;;;;;;4973822;28;20467;-72
2022/04/18 12:48:30;;;;;;;3.80;3.30;;;17.30;71.60;;;;;;4973595;28;20407;-72
2022/04/18 12:50:57;;;;;;;3.37;2.53;;;17.40;71.50;;;;;;4971993;28;20854;-73
2022/04/18 12:53:44;;;;;;;3.67;3.20;;;17.60;73.60;;;;;;4973352;28;20916;-73
2022/04/18 12:56:10;;;;;;;3.43;2.77;;;17.80;73.20;;;;;;4972522;28;20415;-72
2022/04/18 12:58:38;;;;;;;2.40;2.20;;;18.00;70.90;;;;;;4973400;28;20418;-72
2022/04/18 13:01:04;;;;;;;2.77;2.57;;;18.20;74.10;;;;;;4972966;28;20466;-72
2022/04/18 13:03:29;;;;;;;2.63;2.43;;;18.30;72.20;;;;;;4973116;28;20443;-72
2022/04/18 13:05:55;;;;;;;2.83;2.57;;;18.10;70.20;;;;;;4973306;28;20255;-72
2022/04/18 13:08:20;;;;;;;5.87;2.80;;;18.10;70.00;;;;;;4973147;28;20183;-72
2022/04/18 13:10:46;;;;;;;2.50;2.10;;;17.90;71.20;;;;;;4973024;28;20214;-72
2022/04/18 13:13:14;;;;;;;2.70;2.50;;;17.70;70.00;;;;;;4973296;28;20175;-72
2022/04/18 13:15:41;;;;;;;3.00;2.23;;;17.80;72.00;;;;;;4973183;28;20442;-72
2022/04/18 13:18:09;;;;;;;2.23;2.13;;;17.60;70.50;;;;;;4972949;28;20422;-72
2022/04/18 13:20:36;;;;;;;2.77;2.20;;;17.80;71.80;;;;;;4971674;28;20442;-71
2022/04/18 13:23:03;;;;;;;2.33;1.93;;;17.60;70.70;;;;;;4972616;28;21004;-72
2022/04/18 13:25:29;;;;;;;2.20;2.00;;;17.80;73.00;;;;;;4972846;28;20415;-72
2022/04/18 13:27:56;;;;;;;3.17;2.40;;;17.90;74.00;;;;;;4972854;28;20980;-71
2022/04/18 13:30:23;;;;;;;3.30;2.77;;;18.00;73.00;;;;;;4972748;28;20986;-71
2022/04/18 13:32:49;;;;;;;4.43;2.60;;;17.90;73.80;;;;;;4972469;28;20467;-71
2022/04/18 13:35:17;;;;;;;4.23;2.40;;;17.60;69.20;;;;;;4972676;28;20422;-73
2022/04/18 13:37:43;;;;;;;2.87;2.30;;;17.40;70.60;;;;;;4972763;28;20175;-71
2022/04/18 13:40:09;;;;;;;2.30;2.13;;;17.30;71.80;;;;;;4972830;28;20474;-72
2022/04/18 13:42:34;;;;;;;2.20;2.00;;;17.40;73.70;;;;;;4972377;28;20543;-72
2022/04/18 13:45:00;;;;;;;4.57;2.27;;;17.50;71.80;;;;;;4973159;28;20255;-71
2022/04/18 13:47:25;;;;;;;3.10;2.20;;;17.50;70.50;;;;;;4972659;28;20176;-71
2022/04/18 13:49:51;;;;;;;2.63;2.43;;;17.60;70.90;;;;;;4972645;28;20255;-71
2022/04/18 13:52:17;;;;;;;3.50;2.20;;;17.40;71.20;;;;;;4972203;28;20212;-72
2022/04/18 13:54:42;;;;;;;6.93;2.77;;;17.40;71.00;;;;;;4972748;28;20548;-72
2022/04/18 13:57:08;;;;;;;1.87;1.77;;;17.40;70.80;;;;;;4972512;28;20556;-72
2022/04/18 13:59:34;;;;;;;2.57;2.23;;;17.30;70.50;;;;;;4973185;28;20463;-73
2022/04/18 14:02:01;;;;;;;2.50;2.30;;;17.30;71.60;;;;;;4975525;28;20200;-72
2022/04/18 14:04:26;;;;;;;2.23;2.03;;;17.20;72.20;;;;;;4974237;28;20404;-72
2022/04/18 14:06:52;;;;;;;2.03;1.93;;;17.20;71.80;;;;;;4973017;28;20430;-71
2022/04/18 14:09:18;;;;;;;2.30;2.13;;;17.30;72.40;;;;;;4976318;28;20184;-71
2022/04/18 14:11:43;;;;;;;2.10;1.80;;;17.30;71.40;;;;;;4976027;28;20234;-72
2022/04/18 14:14:09;;;;;;;3.47;2.40;;;17.40;70.60;;;;;;4976288;28;20172;-71
2022/04/18 14:22:03;;;;;;;3.03;1.90;;;17.30;72.40;;;;;;4975889;28;20437;-73
2022/04/18 14:24:29;;;;;;;1.80;1.50;;;17.40;71.80;;;;;;4976074;28;20423;-72
2022/04/18 14:26:55;;;;;;;4.23;2.07;;;17.30;71.00;;;;;;4976031;28;20681;-71
2022/04/18 14:29:21;;;;;;;3.00;2.43;;;17.40;71.40;;;;;;4976029;28;20237;-71
2022/04/18 14:31:46;;;;;;;4.23;1.93;;;17.40;70.80;;;;;;4975409;28;20219;-72
2022/04/18 14:34:12;;;;;;;2.50;2.30;;;17.30;72.10;;;;;;4975809;28;20407;-72
2022/04/18 14:36:38;;;;;;;2.10;1.90;;;17.30;73.40;;;;;;4976180;28;20176;-72
2022/04/18 14:39:04;;;;;;;2.90;2.60;;;17.30;73.70;;;;;;4976032;28;20190;-71
2022/04/18 14:41:30;;;;;;;5.03;2.10;;;17.40;73.10;;;;;;4975935;28;20202;-72
2022/04/18 14:43:58;;;;;;;2.13;1.93;;;17.40;75.40;;;;;;4975879;28;20648;-72
2022/04/18 14:46:23;;;;;;;4.80;2.37;;;17.50;72.80;;;;;;4975938;28;20499;-73